Time;durP1;ratioP1;P1;durP2;ratioP2;P2;SDS_P1;SDS_P2;PMS_P1;PMS_P2;Temp;Humidity;BMP_temperature;BMP_pressure;BME280_temperature;BME280_humidity;BME280_pressure;Samples;Min_cycle;Max_cycle;Signal;HPM_P1;HPM_P2
2024/01/08 00:00:38;;;;;;;11.15;9.77;;;;;;;-3.34;94.85;102820.50;5054614;28;20045;-82
2024/01/08 00:03:03;;;;;;;11.20;10.15;;;;;;;-3.39;95.02;102811.63;5060127;28;20040;-80
2024/01/08 00:05:29;;;;;;;11.10;10.00;;;;;;;-3.40;93.79;102817.66;5083498;27;20153;-81
2024/01/08 00:07:54;;;;;;;11.48;10.27;;;;;;;-3.42;94.55;102812.41;5056957;28;20056;-81
2024/01/08 00:10:19;;;;;;;11.90;10.70;;;;;;;-3.44;94.24;102807.97;5061512;28;20020;-79
2024/01/08 00:12:45;;;;;;;12.07;10.75;;;;;;;-3.37;93.49;102828.19;5062565;28;20025;-81
2024/01/08 00:15:10;;;;;;;11.18;10.07;;;;;;;-3.43;92.60;102812.31;5059513;28;20063;-81
2024/01/08 00:17:35;;;;;;;12.70;11.40;;;;;;;-3.40;93.02;102820.25;5058303;28;20048;-82
2024/01/08 00:20:01;;;;;;;11.60;10.40;;;;;;;-3.49;94.65;102801.69;5062019;28;20032;-81
2024/01/08 00:22:26;;;;;;;13.05;11.73;;;;;;;-3.45;93.35;102816.59;5052579;28;20553;-81
2024/01/08 00:24:51;;;;;;;13.10;11.80;;;;;;;-3.46;94.25;102818.31;5058574;28;20090;-81
2024/01/08 00:27:17;;;;;;;13.13;11.85;;;;;;;-3.41;92.89;102810.69;5062171;28;20500;-81
2024/01/08 00:29:42;;;;;;;14.75;12.88;;;;;;;-3.44;93.19;102819.25;5053962;28;20112;-81
2024/01/08 00:32:08;;;;;;;15.02;13.43;;;;;;;-3.45;92.92;102811.41;5060392;28;20043;-81
2024/01/08 00:34:33;;;;;;;14.38;12.88;;;;;;;-3.43;93.01;102814.94;5056343;28;20452;-81
2024/01/08 00:36:58;;;;;;;15.35;13.75;;;;;;;-3.47;93.44;102810.44;5058654;28;20029;-81
2024/01/08 00:39:25;;;;;;;15.13;13.27;;;;;;;-3.45;93.04;102811.41;5054848;28;20024;-81
2024/01/08 00:41:51;;;;;;;15.68;13.85;;;;;;;-3.40;92.77;102815.94;5058368;28;20036;-81
2024/01/08 00:44:16;;;;;;;16.40;13.73;;;;;;;-3.40;92.12;102826.34;5054720;28;20314;-80
2024/01/08 00:46:42;;;;;;;15.43;13.82;;;;;;;-3.44;92.55;102826.19;5054547;28;20047;-79
2024/01/08 00:49:07;;;;;;;14.93;13.43;;;;;;;-3.41;93.09;102831.50;5055206;28;20380;-80
2024/01/08 00:51:32;;;;;;;15.38;13.27;;;;;;;-3.45;92.65;102816.59;5057430;28;20032;-80
2024/01/08 00:53:57;;;;;;;14.45;13.02;;;;;;;-3.39;92.46;102828.13;5058113;28;20016;-80
2024/01/08 00:56:23;;;;;;;14.80;12.40;;;;;;;-3.41;92.26;102827.19;5057808;28;20031;-80
2024/01/08 00:58:49;;;;;;;12.63;11.43;;;;;;;-3.45;91.02;102817.50;5057072;28;20552;-80
2024/01/08 01:01:15;;;;;;;11.43;10.38;;;;;;;-3.47;89.24;102833.88;5051730;28;20075;-80
2024/01/08 01:03:40;;;;;;;11.13;10.13;;;;;;;-3.48;88.19;102822.56;5056029;28;20029;-80
2024/01/08 01:06:06;;;;;;;10.55;9.65;;;;;;;-3.57;89.05;102817.00;5060639;28;20027;-80
2024/01/08 01:08:31;;;;;;;10.95;10.00;;;;;;;-3.55;88.09;102824.06;5056310;28;20047;-80
2024/01/08 01:10:56;;;;;;;10.60;9.68;;;;;;;-3.52;88.87;102831.97;5054326;28;20032;-80
2024/01/08 01:13:22;;;;;;;10.70;9.82;;;;;;;-3.56;88.25;102822.28;5087403;28;20020;-80
2024/01/08 01:15:47;;;;;;;10.98;9.98;;;;;;;-3.66;88.06;102808.84;5052898;28;20032;-80
2024/01/08 01:18:13;;;;;;;10.82;9.85;;;;;;;-3.54;87.72;102836.25;5052698;28;20667;-80
2024/01/08 01:20:38;;;;;;;11.82;10.82;;;;;;;-3.55;87.28;102824.06;5059665;28;20467;-80
2024/01/08 01:23:03;;;;;;;12.45;11.25;;;;;;;-3.60;86.96;102825.59;5056427;28;20020;-80
2024/01/08 01:25:29;;;;;;;11.63;10.52;;;;;;;-3.67;87.55;102823.59;5058102;28;20029;-81
2024/01/08 01:27:54;;;;;;;11.20;10.30;;;;;;;-3.64;87.92;102828.88;5055328;28;20103;-81
2024/01/08 01:30:19;;;;;;;11.52;10.48;;;;;;;-3.63;88.06;102817.69;5050902;28;20116;-81
2024/01/08 01:32:45;;;;;;;11.93;10.85;;;;;;;-3.67;89.64;102821.00;5056134;28;20028;-80
2024/01/08 01:35:10;;;;;;;11.55;10.55;;;;;;;-3.62;88.67;102832.47;5052149;28;20064;-80
2024/01/08 01:37:35;;;;;;;12.55;11.35;;;;;;;-3.66;88.86;102827.06;5057092;28;20036;-81
2024/01/08 01:40:01;;;;;;;10.23;9.32;;;;;;;-3.63;88.17;102828.09;5087917;28;20484;-82
2024/01/08 01:42:26;;;;;;;10.82;9.93;;;;;;;-3.59;88.94;102831.69;5057293;28;20809;-81
2024/01/08 01:44:52;;;;;;;10.27;9.43;;;;;;;-3.58;88.67;102825.66;5056198;28;20040;-81
2024/01/08 01:47:17;;;;;;;10.95;9.95;;;;;;;-3.64;88.16;102828.00;5057994;28;20099;-82
2024/01/08 01:49:43;;;;;;;10.70;9.80;;;;;;;-3.65;89.21;102821.03;5058066;28;20406;-80
2024/01/08 01:52:09;;;;;;;10.60;9.70;;;;;;;-3.61;88.57;102831.63;5055250;28;20036;-79
2024/01/08 01:54:35;;;;;;;10.18;9.20;;;;;;;-3.64;88.24;102833.22;5055884;28;20035;-80
2024/01/08 01:57:02;;;;;;;10.90;10.00;;;;;;;-3.55;88.26;102842.28;5056415;28;20017;-80
2024/01/08 01:59:28;;;;;;;9.52;8.73;;;;;;;-3.54;86.64;102841.44;5054624;28;20114;-80
2024/01/08 02:01:55;;;;;;;10.30;9.50;;;;;;;-3.57;87.45;102830.91;5055621;28;20521;-80
2024/01/08 02:04:24;;;;;;;10.63;9.63;;;;;;;-3.56;88.07;102845.69;5055157;28;20084;-80
2024/01/08 02:06:51;;;;;;;10.82;9.93;;;;;;;-3.52;87.71;102838.91;5084827;28;20036;-81
2024/01/08 02:09:16;;;;;;;10.95;9.95;;;;;;;-3.54;88.86;102827.56;5074078;28;20207;-81
2024/01/08 02:11:43;;;;;;;11.68;10.77;;;;;;;-3.52;90.08;102842.38;5054567;28;20029;-79
2024/01/08 02:14:10;;;;;;;12.45;11.32;;;;;;;-3.52;89.81;102838.91;5059002;28;20047;-80
2024/01/08 02:16:35;;;;;;;12.40;11.20;;;;;;;-3.51;90.07;102838.09;5047829;28;20251;-80
2024/01/08 02:19:01;;;;;;;12.27;11.18;;;;;;;-3.54;90.22;102841.44;5053694;28;20155;-81
2024/01/08 02:21:27;;;;;;;13.02;11.82;;;;;;;-3.52;89.25;102834.56;5054463;28;20047;-80
2024/01/08 02:23:52;;;;;;;14.10;12.80;;;;;;;-3.53;88.35;102852.75;5056289;28;20103;-80
2024/01/08 02:26:21;;;;;;;14.10;12.80;;;;;;;-3.54;88.73;102840.56;5056655;28;20065;-79
2024/01/08 02:28:46;;;;;;;12.95;11.65;;;;;;;-3.62;87.57;102829.84;5047675;28;20028;-80
2024/01/08 02:31:12;;;;;;;11.95;10.55;;;;;;;-3.54;88.13;102841.44;5053240;28;20262;-80
2024/01/08 02:33:37;;;;;;;11.77;10.73;;;;;;;-3.60;88.00;102850.72;5059676;28;20651;-80
2024/01/08 02:36:02;;;;;;;12.23;10.85;;;;;;;-3.69;88.73;102856.47;5051886;28;20099;-80
2024/01/08 02:38:28;;;;;;;10.98;9.88;;;;;;;-3.74;89.44;102847.59;5048849;28;20031;-80
2024/01/08 02:40:53;;;;;;;10.52;9.57;;;;;;;-3.83;90.04;102852.44;5086499;28;20495;-80
2024/01/08 02:43:18;;;;;;;10.23;9.32;;;;;;;-3.92;90.55;102849.47;5052047;28;20466;-81
2024/01/08 02:45:44;;;;;;;10.70;9.80;;;;;;;-4.01;90.86;102850.88;5054411;28;20055;-80
2024/01/08 02:48:09;;;;;;;9.95;9.05;;;;;;;-4.13;92.16;102858.16;5052955;28;20028;-81
2024/01/08 02:50:35;;;;;;;11.30;10.30;;;;;;;-4.18;92.71;102866.56;5045989;28;20027;-80
2024/01/08 02:53:00;;;;;;;10.02;9.02;;;;;;;-4.28;92.96;102863.59;5048533;28;20024;-80
2024/01/08 02:55:25;;;;;;;9.48;8.57;;;;;;;-4.30;93.21;102874.78;5055790;28;20028;-80
2024/01/08 02:57:52;;;;;;;9.52;8.63;;;;;;;-4.31;92.83;102868.66;5060665;28;20396;-80
2024/01/08 03:00:17;;;;;;;9.50;8.57;;;;;;;-4.39;94.03;102874.34;5057897;28;20104;-81
2024/01/08 03:02:42;;;;;;;9.43;8.52;;;;;;;-4.44;94.37;102874.16;5062543;28;20044;-81
2024/01/08 03:05:08;;;;;;;9.20;8.35;;;;;;;-4.53;95.34;102866.84;5059649;28;20409;-81
2024/01/08 03:07:33;;;;;;;6.72;3.40;;;;;;;-4.49;95.23;102877.38;5062001;28;20033;-81
2024/01/08 03:09:59;;;;;;;13.50;12.10;;;;;;;-4.56;96.56;102874.50;5062077;28;20027;-80
2024/01/08 03:12:25;;;;;;;11.48;10.30;;;;;;;-4.70;96.91;102865.22;5061846;28;20541;-83
2024/01/08 03:14:51;;;;;;;11.00;9.88;;;;;;;-4.70;97.19;102878.22;5061615;28;20123;-81
2024/01/08 03:17:16;;;;;;;8.80;8.00;;;;;;;-4.69;97.29;102879.13;5063077;28;20036;-80
2024/01/08 03:19:42;;;;;;;9.60;8.70;;;;;;;-4.72;97.87;102869.50;5062503;28;20059;-81
2024/01/08 03:22:07;;;;;;;9.27;8.38;;;;;;;-4.65;97.83;102875.84;5061286;28;20119;-81
2024/01/08 03:24:34;;;;;;;9.23;8.43;;;;;;;-4.63;97.86;102867.28;5055975;28;20197;-81
2024/01/08 03:26:59;;;;;;;10.15;9.10;;;;;;;-4.56;97.63;102873.63;5086820;28;20044;-80
2024/01/08 03:29:25;;;;;;;9.45;8.55;;;;;;;-4.55;98.22;102873.72;5062168;28;20477;-81
2024/01/08 03:31:51;;;;;;;9.40;8.43;;;;;;;-4.54;97.83;102872.88;5052353;28;20052;-80
2024/01/08 03:34:16;;;;;;;10.52;9.00;;;;;;;-4.48;97.53;102884.34;5053392;28;20579;-80
2024/01/08 03:36:46;;;;;;;8.55;7.75;;;;;;;-4.49;97.90;102869.59;5058623;28;20040;-80
2024/01/08 03:39:12;;;;;;;10.13;9.13;;;;;;;-4.43;98.21;102870.75;5052368;28;20090;-80
2024/01/08 03:41:38;;;;;;;9.05;8.25;;;;;;;-4.35;98.36;102877.16;5053859;28;20039;-80
2024/01/08 03:44:04;;;;;;;8.73;7.82;;;;;;;-4.33;97.90;102885.03;5058158;28;20028;-80
2024/01/08 03:46:29;;;;;;;9.93;8.93;;;;;;;-4.25;96.83;102878.44;5057533;28;20038;-81
2024/01/08 03:48:54;;;;;;;9.68;8.77;;;;;;;-4.24;97.52;102882.81;5052009;28;20030;-81
2024/01/08 03:51:21;;;;;;;9.98;9.02;;;;;;;-4.21;96.59;102879.47;5052894;28;20036;-81
2024/01/08 03:53:46;;;;;;;10.02;9.02;;;;;;;-4.19;96.91;102881.28;5049296;28;20053;-82
2024/01/08 03:56:11;;;;;;;9.30;8.40;;;;;;;-4.17;97.23;102881.38;5060869;28;20064;-83
2024/01/08 03:58:37;;;;;;;9.32;8.43;;;;;;;-4.15;97.04;102879.72;5054234;28;20083;-82
2024/01/08 04:01:03;;;;;;;9.40;8.52;;;;;;;-4.17;96.54;102866.66;5061087;28;20053;-82
2024/01/08 04:03:29;;;;;;;9.25;8.35;;;;;;;-4.11;96.64;102879.00;5056331;28;20280;-82
2024/01/08 04:05:54;;;;;;;8.90;8.05;;;;;;;-4.12;96.56;102872.94;5059925;28;20028;-82
2024/01/08 04:08:21;;;;;;;9.27;8.27;;;;;;;-4.09;96.44;102885.19;5056082;28;20039;-82
2024/01/08 04:10:46;;;;;;;8.98;8.18;;;;;;;-4.09;96.89;102880.00;5056319;28;20040;-82
2024/01/08 04:13:12;;;;;;;9.18;8.25;;;;;;;-4.06;96.26;102878.38;5058393;28;20032;-82
2024/01/08 04:15:37;;;;;;;9.25;8.38;;;;;;;-4.06;97.45;102870.56;5051154;28;20035;-82
2024/01/08 04:18:03;;;;;;;9.15;8.25;;;;;;;-4.05;97.44;102881.88;5059356;28;20021;-82
2024/01/08 04:20:28;;;;;;;9.48;8.57;;;;;;;-4.06;97.41;102880.09;5059186;28;20025;-82
2024/01/08 04:22:53;;;;;;;9.05;8.25;;;;;;;-4.13;96.70;102868.56;5060214;28;20028;-82
2024/01/08 04:25:19;;;;;;;9.63;8.65;;;;;;;-4.04;97.72;102878.47;5054295;28;20039;-82
2024/01/08 04:27:44;;;;;;;10.60;9.57;;;;;;;-4.00;97.90;102880.38;5058356;28;20056;-82
2024/01/08 04:30:10;;;;;;;9.63;8.73;;;;;;;-4.01;97.08;102873.38;5058512;28;20394;-82
2024/01/08 04:32:38;;;;;;;9.40;8.43;;;;;;;-3.95;97.11;102883.16;5059604;28;20078;-83
2024/01/08 04:35:04;;;;;;;9.43;8.43;;;;;;;-3.94;96.93;102879.72;5059514;28;20115;-81
2024/01/08 04:37:29;;;;;;;9.20;8.30;;;;;;;-3.98;97.50;102877.81;5092399;28;20099;-82
2024/01/08 04:39:55;;;;;;;10.25;9.30;;;;;;;-3.96;97.32;102881.38;5055844;28;20028;-82
2024/01/08 04:42:23;;;;;;;9.25;8.35;;;;;;;-3.93;97.39;102881.47;5055330;28;20029;-82
2024/01/08 04:44:49;;;;;;;10.13;9.20;;;;;;;-3.90;96.60;102879.00;5052867;28;20037;-82
2024/01/08 04:47:14;;;;;;;9.32;8.32;;;;;;;-3.91;97.61;102874.66;5057536;28;20031;-81
2024/01/08 04:49:40;;;;;;;8.93;8.02;;;;;;;-3.90;97.21;102874.69;5050450;28;20025;-81
2024/01/08 04:52:06;;;;;;;9.68;8.68;;;;;;;-3.95;97.02;102864.94;5054856;28;20032;-82
2024/01/08 04:54:32;;;;;;;9.10;8.20;;;;;;;-3.90;97.17;102877.28;5057659;28;20114;-82
2024/01/08 04:56:57;;;;;;;9.60;8.70;;;;;;;-3.87;96.32;102874.84;5060208;28;20028;-81
2024/01/08 04:59:23;;;;;;;9.45;8.23;;;;;;;-3.88;97.07;102867.84;5058557;28;20033;-82
2024/01/08 05:01:50;;;;;;;9.40;8.50;;;;;;;-3.90;96.49;102879.00;5057820;28;20050;-81
2024/01/08 05:04:16;;;;;;;8.80;7.90;;;;;;;-3.93;95.69;102861.59;5056503;28;20074;-82
2024/01/08 05:06:42;;;;;;;9.10;8.27;;;;;;;-3.85;96.48;102880.09;5060562;28;20032;-82
2024/01/08 05:09:08;;;;;;;9.85;8.95;;;;;;;-3.83;96.43;102884.53;5058044;28;20032;-83
2024/01/08 05:11:34;;;;;;;10.07;9.07;;;;;;;-3.93;96.72;102865.88;5057458;28;20552;-82
2024/01/08 05:13:59;;;;;;;9.38;8.50;;;;;;;-3.86;95.97;102870.50;5053728;28;20070;-82
2024/01/08 05:16:25;;;;;;;10.27;9.27;;;;;;;-3.90;97.08;102872.09;5056924;28;20089;-82
2024/01/08 05:18:50;;;;;;;9.63;8.73;;;;;;;-3.87;96.96;102877.44;5057168;28;20032;-83
2024/01/08 05:21:15;;;;;;;10.48;9.40;;;;;;;-3.85;97.11;102873.16;5050673;28;20037;-82
2024/01/08 05:23:41;;;;;;;10.40;9.50;;;;;;;-3.88;97.38;102867.84;5058397;28;20020;-83
2024/01/08 05:26:07;;;;;;;9.85;8.85;;;;;;;-3.90;97.85;102874.69;5053981;28;20021;-82
2024/01/08 05:28:33;;;;;;;11.85;9.32;;;;;;;-3.87;98.28;102876.53;5056821;28;20488;-82
2024/01/08 05:30:58;;;;;;;11.68;9.15;;;;;;;-3.94;98.06;102870.19;5056220;28;20058;-82
2024/01/08 05:33:25;;;;;;;10.10;9.10;;;;;;;-3.92;98.92;102873.75;5055190;28;20043;-82
2024/01/08 05:35:50;;;;;;;10.52;9.43;;;;;;;-3.89;98.75;102872.97;5057114;28;20034;-83
2024/01/08 05:38:16;;;;;;;10.18;9.18;;;;;;;-3.97;99.00;102864.88;5047901;28;20032;-83
2024/01/08 05:40:41;;;;;;;10.10;9.10;;;;;;;-3.90;99.36;102860.81;5057304;28;20441;-82
2024/01/08 05:43:06;;;;;;;11.13;10.02;;;;;;;-3.98;99.71;102862.19;5053214;28;20732;-83
2024/01/08 05:45:32;;;;;;;10.88;9.77;;;;;;;-3.87;100.00;102867.03;5050331;28;20027;-81
2024/01/08 05:47:57;;;;;;;11.40;10.20;;;;;;;-3.93;100.00;102869.38;5055861;28;20521;-81
2024/01/08 05:50:27;;;;;;;10.50;9.45;;;;;;;-3.87;100.00;102872.22;5058665;28;20039;-82
2024/01/08 05:52:53;;;;;;;10.60;9.60;;;;;;;-3.91;100.00;102872.03;5057783;28;20527;-82
2024/01/08 05:55:18;;;;;;;11.32;10.13;;;;;;;-3.92;100.00;102880.69;5054393;28;20029;-82
2024/01/08 05:57:44;;;;;;;12.18;10.88;;;;;;;-3.90;100.00;102861.69;5052173;28;20031;-82
2024/01/08 06:00:09;;;;;;;10.77;9.75;;;;;;;-3.90;100.00;102873.81;5055720;28;20115;-81
2024/01/08 06:02:35;;;;;;;11.52;10.32;;;;;;;-3.89;100.00;102872.97;5057033;28;20030;-81
2024/01/08 06:05:00;;;;;;;11.63;10.52;;;;;;;-3.90;100.00;102860.81;5054291;28;20052;-82
2024/01/08 06:07:26;;;;;;;12.52;10.85;;;;;;;-3.88;100.00;102872.19;5054671;28;21720;-81
2024/01/08 06:09:54;;;;;;;11.82;10.48;;;;;;;-3.88;100.00;102867.84;5056119;28;20079;-82
2024/01/08 06:12:20;;;;;;;10.63;9.63;;;;;;;-3.90;100.00;102876.41;5053397;28;20108;-83
2024/01/08 06:14:45;;;;;;;13.45;10.75;;;;;;;-3.84;100.00;102871.47;5054297;28;20032;-83
2024/01/08 06:17:11;;;;;;;12.93;10.93;;;;;;;-3.88;100.00;102866.97;5058144;28;20145;-83
2024/01/08 06:19:36;;;;;;;12.10;10.90;;;;;;;-3.86;100.00;102873.13;5054792;28;20024;-82
2024/01/08 06:22:02;;;;;;;11.27;10.05;;;;;;;-3.91;100.00;102852.13;5057419;28;20032;-82
2024/01/08 06:24:27;;;;;;;12.68;10.90;;;;;;;-3.89;100.00;102865.19;5052955;28;20036;-82
2024/01/08 06:26:53;;;;;;;12.32;11.02;;;;;;;-3.96;100.00;102845.84;5053581;28;20074;-82
2024/01/08 06:29:19;;;;;;;11.40;10.27;;;;;;;-3.94;100.00;102849.38;5051710;28;20112;-81
2024/01/08 06:31:45;;;;;;;12.93;11.63;;;;;;;-3.83;100.00;102866.31;5058993;28;20384;-82
2024/01/08 06:34:10;;;;;;;12.43;11.00;;;;;;;-3.81;100.00;102861.16;5053722;28;20025;-82
2024/01/08 06:36:38;;;;;;;12.65;11.35;;;;;;;-3.79;100.00;102859.53;5062905;28;20039;-82
2024/01/08 06:39:04;;;;;;;14.25;11.77;;;;;;;-3.85;100.00;102857.56;5064263;28;20024;-81
2024/01/08 06:41:29;;;;;;;13.57;12.00;;;;;;;-3.78;100.00;102858.69;5059464;28;20024;-82
2024/01/08 06:43:56;;;;;;;13.05;11.75;;;;;;;-3.78;100.00;102866.50;5062051;28;20027;-81
2024/01/08 06:46:21;;;;;;;16.45;11.65;;;;;;;-3.73;100.00;102858.88;5061919;28;20036;-82
2024/01/08 06:48:46;;;;;;;13.13;11.75;;;;;;;-3.74;100.00;102863.19;5048215;28;20029;-82
2024/01/08 06:51:12;;;;;;;12.13;10.93;;;;;;;-3.73;100.00;102849.34;5060215;28;20334;-82
2024/01/08 06:53:37;;;;;;;13.65;12.25;;;;;;;-3.69;100.00;102856.47;5056948;28;20032;-81
2024/01/08 06:56:03;;;;;;;13.18;11.85;;;;;;;-3.69;100.00;102846.03;5093146;28;20044;-81
2024/01/08 06:58:28;;;;;;;16.85;12.75;;;;;;;-3.72;100.00;102850.25;5062636;28;20068;-82
2024/01/08 07:00:54;;;;;;;13.65;12.25;;;;;;;-3.67;100.00;102853.94;5054243;28;20080;-82
2024/01/08 07:03:24;;;;;;;14.55;12.48;;;;;;;-3.69;100.00;102858.19;5065095;28;20481;-95
2024/01/08 07:05:49;;;;;;;13.98;12.02;;;;;;;-3.62;100.00;102861.09;5060749;28;20055;-83
2024/01/08 07:08:15;;;;;;;15.18;12.77;;;;;;;-3.78;100.00;102845.69;5061330;28;20056;-82
2024/01/08 07:10:40;;;;;;;14.85;12.80;;;;;;;-3.67;100.00;102864.34;5059255;28;20028;-82
2024/01/08 07:13:05;;;;;;;14.88;13.07;;;;;;;-3.59;100.00;102874.22;5055900;28;20025;-82
2024/01/08 07:15:48;;;;;;;16.70;13.10;;;;;;;-3.59;100.00;102874.22;5062079;28;20028;-82
2024/01/08 07:18:15;;;;;;;7.13;5.37;;;;;;;-3.36;100.00;102876.84;5085205;27;20737;-83
2024/01/08 07:20:41;;;;;;;14.15;12.65;;;;;;;-3.53;100.00;102877.06;5056637;28;20055;-82
2024/01/08 07:23:10;;;;;;;7.75;5.18;;;;;;;-3.43;100.00;102890.44;5055474;28;20028;-82
2024/01/08 07:25:37;;;;;;;14.57;12.90;;;;;;;-3.55;100.00;102870.03;5053300;28;20107;-83
2024/01/08 07:28:05;;;;;;;14.65;13.15;;;;;;;-3.52;100.00;102885.75;5057477;28;20107;-83
2024/01/08 07:30:30;;;;;;;16.23;14.10;;;;;;;-3.48;100.00;102878.97;5060871;28;20378;-81
2024/01/08 07:32:56;;;;;;;14.90;13.27;;;;;;;-3.59;100.00;102866.44;5089862;27;20086;-82
2024/01/08 07:35:22;;;;;;;14.52;13.00;;;;;;;-3.51;100.00;102878.03;5060769;28;20039;-82
2024/01/08 07:37:54;;;;;;;15.23;13.65;;;;;;;-3.47;100.00;102880.72;5067824;28;20043;-83
2024/01/08 07:40:29;;;;;;;14.20;12.65;;;;;;;-3.45;100.00;102876.47;5056445;28;20465;-82
2024/01/08 07:42:58;;;;;;;15.25;13.60;;;;;;;-3.53;100.00;102873.56;5057902;28;20028;-82
2024/01/08 07:45:25;;;;;;;14.07;12.68;;;;;;;-3.46;100.00;102885.13;5059102;28;20080;-84
2024/01/08 07:47:51;;;;;;;14.63;13.15;;;;;;;-3.40;100.00;102893.16;5102810;28;20020;-83
2024/01/08 07:50:16;;;;;;;15.77;13.20;;;;;;;-3.43;100.00;102896.53;5076124;28;20220;-83
2024/01/08 07:52:42;;;;;;;15.40;13.73;;;;;;;-3.51;100.00;102883.22;5070359;28;20272;-86
2024/01/08 07:55:08;;;;;;;15.52;13.70;;;;;;;-3.42;100.00;102894.84;5073089;28;20027;-85
2024/01/08 07:57:34;;;;;;;14.25;12.75;;;;;;;-3.52;100.00;102880.53;5069842;28;20008;-84
2024/01/08 08:00:00;;;;;;;15.50;13.20;;;;;;;-3.39;100.00;102900.13;5072563;28;20028;-84
2024/01/08 08:02:26;;;;;;;14.30;12.80;;;;;;;-3.45;100.00;102884.28;5073387;28;20051;-84
2024/01/08 08:04:53;;;;;;;14.70;13.20;;;;;;;-3.35;100.00;102894.22;5073514;28;20588;-84
2024/01/08 08:07:19;;;;;;;14.30;12.82;;;;;;;-3.35;100.00;102894.22;5072923;28;20035;-84
2024/01/08 08:09:45;;;;;;;14.90;13.35;;;;;;;-3.29;100.00;102899.69;5074961;28;20016;-85
2024/01/08 08:12:10;;;;;;;15.50;13.13;;;;;;;-3.32;100.00;102891.75;5073578;28;20029;-83
2024/01/08 08:14:36;;;;;;;14.27;12.77;;;;;;;-3.45;100.00;102876.47;5085442;28;20024;-83
2024/01/08 08:17:03;;;;;;;14.70;13.10;;;;;;;-3.30;100.00;102908.34;5069233;28;20028;-84
2024/01/08 08:19:28;;;;;;;13.93;12.43;;;;;;;-3.26;100.00;102900.69;5065516;28;20036;-83
2024/01/08 08:21:54;;;;;;;14.88;13.27;;;;;;;-3.26;100.00;102910.19;5075596;28;20390;-83
2024/01/08 08:24:19;;;;;;;14.88;13.10;;;;;;;-3.23;100.00;102905.13;5076080;28;20462;-81
2024/01/08 08:26:45;;;;;;;16.45;13.60;;;;;;;-3.34;100.00;102885.59;5072049;28;20097;-83
2024/01/08 08:29:10;;;;;;;15.65;12.20;;;;;;;-3.33;100.00;102888.25;5062108;28;20031;-84
2024/01/08 08:31:35;;;;;;;13.93;12.52;;;;;;;-3.20;100.00;102899.16;5075001;28;20031;-83
2024/01/08 08:34:02;;;;;;;15.00;12.98;;;;;;;-3.22;100.00;102895.59;5078263;28;20532;-84
2024/01/08 08:36:27;;;;;;;13.98;12.45;;;;;;;-3.22;100.00;102908.59;5073869;28;20070;-82
2024/01/08 08:38:53;;;;;;;14.32;12.80;;;;;;;-3.30;100.00;102897.91;5077057;28;20032;-84
2024/01/08 08:41:19;;;;;;;14.38;12.85;;;;;;;-3.27;100.00;102908.44;5072440;28;20385;-83
2024/01/08 08:43:45;;;;;;;14.65;13.15;;;;;;;-3.34;100.00;102904.72;5079516;28;20028;-83
2024/01/08 08:46:10;;;;;;;14.75;13.25;;;;;;;-3.25;100.00;102912.00;5074992;28;20389;-83
2024/01/08 08:48:36;;;;;;;13.65;12.35;;;;;;;-3.25;100.00;102909.41;5067643;28;20025;-86
2024/01/08 08:51:01;;;;;;;13.18;11.63;;;;;;;-3.29;100.00;102905.78;5075940;28;20382;-84
2024/01/08 08:53:29;;;;;;;13.95;12.23;;;;;;;-3.21;100.00;102910.41;5069182;28;20121;-84
2024/01/08 08:55:54;;;;;;;13.48;12.10;;;;;;;-3.22;100.00;102911.22;5068092;28;20028;-85
2024/01/08 08:58:23;;;;;;;12.75;11.45;;;;;;;-3.22;100.00;102916.41;5077982;28;20050;-84
2024/01/08 09:00:49;;;;;;;14.15;12.32;;;;;;;-3.20;100.00;102914.78;5098782;28;20040;-83
2024/01/08 09:03:14;;;;;;;14.32;12.93;;;;;;;-3.26;100.00;102924.13;5071980;28;20529;-84
2024/01/08 09:05:40;;;;;;;14.15;12.68;;;;;;;-3.28;100.00;102924.91;5071269;28;20088;-84
2024/01/08 09:08:05;;;;;;;13.98;12.68;;;;;;;-3.28;100.00;102924.91;5073763;28;20025;-83
2024/01/08 09:10:31;;;;;;;13.68;12.27;;;;;;;-3.30;100.00;102927.44;5054584;28;20131;-82
2024/01/08 09:12:56;;;;;;;13.75;12.45;;;;;;;-3.36;100.00;102919.38;5051306;28;20581;-82
2024/01/08 09:15:22;;;;;;;14.35;12.82;;;;;;;-3.32;100.00;102931.69;5053757;28;20439;-82
2024/01/08 09:17:48;;;;;;;13.93;12.35;;;;;;;-3.34;100.00;102930.75;5055369;28;20036;-82
2024/01/08 09:20:13;;;;;;;14.05;12.63;;;;;;;-3.38;100.00;102926.25;5091488;27;20031;-82
2024/01/08 09:22:39;;;;;;;13.82;12.43;;;;;;;-3.38;100.00;102931.47;5055373;28;20036;-82
2024/01/08 09:25:06;;;;;;;15.45;13.05;;;;;;;-3.35;100.00;102936.78;5059879;28;20020;-82
2024/01/08 09:27:31;;;;;;;13.90;12.45;;;;;;;-3.35;100.00;102928.06;5052882;28;20385;-82
2024/01/08 09:29:57;;;;;;;13.52;11.95;;;;;;;-3.32;100.00;102936.03;5064620;28;20082;-82
2024/01/08 09:32:24;;;;;;;14.43;12.40;;;;;;;-3.25;100.00;102945.84;5058505;28;20029;-82
2024/01/08 09:34:50;;;;;;;13.98;11.93;;;;;;;-3.24;100.00;102933.72;5059100;28;20036;-82
2024/01/08 09:37:16;;;;;;;13.35;12.05;;;;;;;-3.19;100.00;102935.66;5063410;28;20016;-81
2024/01/08 09:39:41;;;;;;;14.07;12.60;;;;;;;-3.01;100.00;102941.59;5058038;28;20078;-82
2024/01/08 09:42:08;;;;;;;12.35;11.18;;;;;;;-2.98;100.00;102950.34;5050360;28;20028;-82
2024/01/08 09:44:34;;;;;;;12.88;11.68;;;;;;;-2.95;100.00;102953.97;5055476;28;20024;-82
2024/01/08 09:47:03;;;;;;;12.98;11.68;;;;;;;-2.94;100.00;102957.47;5059279;28;20039;-82
2024/01/08 09:49:32;;;;;;;13.30;12.00;;;;;;;-2.97;100.00;102959.94;5060554;28;20091;-82
2024/01/08 09:51:59;;;;;;;13.50;12.20;;;;;;;-3.08;100.00;102951.72;5055835;28;20040;-82
2024/01/08 09:54:25;;;;;;;12.82;11.63;;;;;;;-3.13;100.00;102948.94;5056951;28;20033;-82
2024/01/08 09:56:53;;;;;;;12.32;11.18;;;;;;;-3.04;100.00;102953.63;5062560;28;20032;-82
2024/01/08 09:59:19;;;;;;;14.50;13.00;;;;;;;-2.94;100.00;102944.44;5058066;28;20112;-82
2024/01/08 10:01:44;;;;;;;13.48;12.13;;;;;;;-2.81;100.00;102951.88;5058589;28;20305;-82
2024/01/08 10:04:10;;;;;;;13.18;11.95;;;;;;;-2.81;100.00;102951.88;5060574;28;20036;-82
2024/01/08 10:06:38;;;;;;;12.90;11.70;;;;;;;-2.83;100.00;102953.56;5057601;28;20068;-82
2024/01/08 10:09:04;;;;;;;13.50;12.10;;;;;;;-2.90;100.00;102925.47;5060770;28;20097;-83
2024/01/08 10:11:30;;;;;;;13.63;12.32;;;;;;;-2.78;100.00;102954.59;5055366;28;20020;-83
2024/01/08 10:13:56;;;;;;;14.02;12.63;;;;;;;-2.77;100.00;102948.56;5055083;28;20539;-82
2024/01/08 10:16:25;;;;;;;12.18;10.98;;;;;;;-2.81;100.00;102941.44;5058243;28;20048;-82
2024/01/08 10:18:51;;;;;;;13.70;12.40;;;;;;;-2.73;100.00;102947.84;5059904;28;20056;-82
2024/01/08 10:21:17;;;;;;;13.02;11.73;;;;;;;-2.77;100.00;102943.34;5056353;28;20063;-82
2024/01/08 10:23:43;;;;;;;12.60;11.40;;;;;;;-2.76;100.00;102939.91;5055696;28;20892;-83
2024/01/08 10:26:13;;;;;;;11.90;10.68;;;;;;;-2.80;100.00;102932.78;5058299;28;20467;-82
2024/01/08 10:28:40;;;;;;;12.70;11.50;;;;;;;-2.72;100.00;102935.69;5054673;28;20024;-82
2024/01/08 10:31:07;;;;;;;5.72;4.43;;;;;;;-2.57;100.00;102939.75;5049898;28;20028;-82
2024/01/08 10:33:33;;;;;;;12.32;11.10;;;;;;;-2.72;100.00;102930.47;5051185;28;20012;-82
2024/01/08 10:36:05;;;;;;;12.38;11.07;;;;;;;-2.85;100.00;102940.44;5054049;28;20093;-82
2024/01/08 10:38:35;;;;;;;11.73;10.63;;;;;;;-2.99;100.00;102931.22;5055656;28;20529;-82
2024/01/08 10:41:01;;;;;;;12.25;11.13;;;;;;;-2.84;100.00;102928.34;5056365;28;20037;-82
2024/01/08 10:43:30;;;;;;;10.98;10.00;;;;;;;-2.73;100.00;102924.38;5055124;28;20044;-82
2024/01/08 10:46:04;;;;;;;10.90;9.90;;;;;;;-2.47;100.00;102934.88;5053613;28;20077;-82
2024/01/08 10:48:40;;;;;;;10.02;9.13;;;;;;;-2.34;100.00;102914.53;5059638;28;20036;-82
2024/01/08 10:51:07;;;;;;;9.13;8.32;;;;;;;-2.23;100.00;102921.81;5063948;28;20030;-81
2024/01/08 10:53:46;;;;;;;9.88;8.98;;;;;;;-2.27;97.40;102911.28;5055275;28;20027;-80
2024/01/08 10:56:15;;;;;;;9.23;8.43;;;;;;;-2.42;96.85;102915.09;5060496;28;20117;-82
2024/01/08 10:59:09;;;;;;;8.77;7.97;;;;;;;-2.48;95.77;102909.63;5057742;28;20039;-82
2024/01/08 11:01:36;;;;;;;8.73;7.93;;;;;;;-2.34;93.90;102924.03;5051399;28;20496;-82
2024/01/08 11:04:04;;;;;;;8.55;7.75;;;;;;;-2.38;91.85;102916.94;5085725;28;20406;-81